createdAt,value
2023-03-22T00:01:46.310Z,94.80
2023-03-22T00:04:12.886Z,94.37
2023-03-22T00:06:39.551Z,94.81
2023-03-22T00:09:06.092Z,94.27
2023-03-22T00:11:32.544Z,94.42
2023-03-22T00:13:59.655Z,94.87
2023-03-22T00:16:26.558Z,94.86
2023-03-22T00:18:53.145Z,94.90
2023-03-22T00:21:19.853Z,95.10
2023-03-22T00:23:46.380Z,95.41
2023-03-22T00:26:14.771Z,95.54
2023-03-22T00:28:42.883Z,95.39
2023-03-22T00:31:10.872Z,95.82
2023-03-22T00:33:37.791Z,95.82
2023-03-22T00:36:08.384Z,95.86
2023-03-22T00:38:42.837Z,95.95
2023-03-22T00:41:16.375Z,96.13
2023-03-22T00:43:45.127Z,95.83
2023-03-22T00:46:12.827Z,95.94
2023-03-22T00:48:39.804Z,95.93
2023-03-22T00:51:07.049Z,95.86
2023-03-22T00:53:36.247Z,96.00
2023-03-22T00:56:03.772Z,96.03
2023-03-22T00:58:39.109Z,95.91
2023-03-22T01:01:07.338Z,95.69
2023-03-22T01:03:34.912Z,95.90
2023-03-22T01:06:02.190Z,95.82
2023-03-22T01:08:33.236Z,95.99
2023-03-22T01:11:01.284Z,95.81
2023-03-22T01:13:28.969Z,96.04
2023-03-22T01:15:55.946Z,95.79
2023-03-22T01:18:23.428Z,95.97
2023-03-22T01:20:51.373Z,95.92
2023-03-22T01:23:17.914Z,95.86
2023-03-22T01:25:44.408Z,96.16
2023-03-22T01:28:11.016Z,95.97
2023-03-22T01:30:40.525Z,95.93
2023-03-22T01:33:07.663Z,95.97
2023-03-22T01:35:35.405Z,95.69
2023-03-22T01:38:02.199Z,95.63
2023-03-22T01:40:28.798Z,95.52
2023-03-22T01:42:56.719Z,95.37
2023-03-22T01:45:40.603Z,95.52
2023-03-22T01:48:14.511Z,95.53
2023-03-22T01:50:45.330Z,95.76
2023-03-22T01:53:15.380Z,95.69
2023-03-22T01:55:42.475Z,95.44
2023-03-22T01:58:17.986Z,95.60
2023-03-22T02:00:52.946Z,95.56
2023-03-22T02:03:58.480Z,95.54
2023-03-22T02:06:26.927Z,95.65
2023-03-22T02:08:59.911Z,95.47
2023-03-22T02:11:38.567Z,95.67
2023-03-22T02:14:38.612Z,95.75
2023-03-22T02:18:19.510Z,95.94
2023-03-22T02:21:19.095Z,95.92
2023-03-22T02:23:57.808Z,96.04
2023-03-22T02:26:41.478Z,96.29
2023-03-22T02:29:26.353Z,96.38
2023-03-22T02:32:01.497Z,96.38
2023-03-22T02:35:12.072Z,96.60
2023-03-22T02:38:00.237Z,96.82
2023-03-22T02:40:41.498Z,97.19
2023-03-22T02:43:38.601Z,97.24
2023-03-22T02:46:22.851Z,97.55
2023-03-22T02:49:02.056Z,97.79
2023-03-22T02:51:42.921Z,98.08
2023-03-22T02:54:18.436Z,98.86
2023-03-22T02:57:08.366Z,99.29
2023-03-22T02:59:39.353Z,99.69
2023-03-22T03:02:11.221Z,100.00
2023-03-22T03:04:46.239Z,100.00
2023-03-22T03:07:15.594Z,100.00
2023-03-22T03:09:44.021Z,100.00
2023-03-22T03:12:21.091Z,100.00
2023-03-22T03:14:48.454Z,100.00
2023-03-22T03:17:33.204Z,100.00
2023-03-22T03:20:21.988Z,100.00
2023-03-22T03:23:02.295Z,100.00
2023-03-22T03:25:46.695Z,100.00
2023-03-22T03:28:38.399Z,100.00
2023-03-22T03:31:16.141Z,100.00
2023-03-22T03:34:10.112Z,100.00
2023-03-22T03:36:40.718Z,100.00
2023-03-22T03:39:12.207Z,100.00
2023-03-22T03:41:40.624Z,100.00
2023-03-22T03:44:08.736Z,100.00
2023-03-22T03:46:36.350Z,100.00
2023-03-22T03:49:04.563Z,100.00
2023-03-22T03:51:33.362Z,100.00
2023-03-22T03:53:59.880Z,100.00
2023-03-22T03:56:26.319Z,100.00
2023-03-22T03:58:54.341Z,100.00
2023-03-22T04:01:21.325Z,100.00
2023-03-22T04:03:57.715Z,100.00
2023-03-22T04:06:39.531Z,100.00
2023-03-22T04:09:11.879Z,100.00
2023-03-22T04:11:42.775Z,100.00
2023-03-22T04:14:09.726Z,100.00
2023-03-22T04:16:37.660Z,100.00
2023-03-22T04:19:06.308Z,100.00
2023-03-22T04:21:32.818Z,100.00
2023-03-22T04:24:01.266Z,100.00
2023-03-22T04:26:32.484Z,100.00
2023-03-22T04:29:17.299Z,100.00
2023-03-22T04:31:48.779Z,100.00
2023-03-22T04:34:24.394Z,100.00
2023-03-22T04:36:57.374Z,100.00
2023-03-22T04:39:28.381Z,100.00
2023-03-22T04:42:33.492Z,100.00
2023-03-22T04:45:29.377Z,100.00
2023-03-22T04:48:00.227Z,100.00
2023-03-22T04:50:28.408Z,100.00
2023-03-22T04:52:59.535Z,100.00
2023-03-22T04:55:27.535Z,100.00
2023-03-22T04:57:54.668Z,100.00
2023-03-22T05:00:23.223Z,100.00
2023-03-22T05:02:50.618Z,100.00
2023-03-22T05:05:25.847Z,100.00
2023-03-22T05:07:52.759Z,100.00
2023-03-22T05:10:19.527Z,100.00
2023-03-22T05:12:46.174Z,100.00
2023-03-22T05:15:18.312Z,100.00
2023-03-22T05:17:45.770Z,100.00
2023-03-22T05:20:12.338Z,100.00
2023-03-22T05:22:41.215Z,100.00
2023-03-22T05:25:10.714Z,100.00
2023-03-22T05:27:39.626Z,100.00
2023-03-22T05:30:33.647Z,100.00
2023-03-22T05:33:06.855Z,100.00
2023-03-22T05:35:41.780Z,100.00
2023-03-22T05:38:10.604Z,100.00
2023-03-22T05:40:41.748Z,100.00
2023-03-22T05:43:08.492Z,100.00
2023-03-22T05:45:39.621Z,100.00
2023-03-22T05:48:16.964Z,100.00
2023-03-22T05:50:43.921Z,100.00
2023-03-22T05:53:11.876Z,100.00
2023-03-22T05:56:00.830Z,100.00
2023-03-22T05:58:31.651Z,100.00
2023-03-22T06:01:03.996Z,100.00
2023-03-22T06:03:56.580Z,100.00
2023-03-22T06:06:35.071Z,100.00
2023-03-22T06:09:17.199Z,100.00
2023-03-22T06:11:48.021Z,100.00
2023-03-22T06:14:15.885Z,100.00
2023-03-22T06:17:01.131Z,100.00
2023-03-22T06:19:27.751Z,100.00
2023-03-22T06:21:57.166Z,100.00
2023-03-22T06:24:26.343Z,100.00
2023-03-22T06:26:53.184Z,100.00
2023-03-22T06:29:19.826Z,100.00
2023-03-22T06:31:47.839Z,100.00
2023-03-22T06:34:14.475Z,100.00
2023-03-22T06:36:42.439Z,99.70
2023-03-22T06:39:15.900Z,98.73
2023-03-22T06:41:44.370Z,97.98
2023-03-22T06:44:11.310Z,96.21
2023-03-22T06:47:00.786Z,95.24
2023-03-22T06:49:43.406Z,95.13
2023-03-22T06:52:15.589Z,95.35
2023-03-22T06:54:42.367Z,95.08
2023-03-22T06:57:09.944Z,94.81
2023-03-22T06:59:36.391Z,94.84
2023-03-22T07:02:03.248Z,94.46
2023-03-22T07:04:30.388Z,94.75
2023-03-22T07:07:12.790Z,93.90
2023-03-22T07:09:40.541Z,93.85
2023-03-22T07:12:07.205Z,93.79
2023-03-22T07:14:33.938Z,93.67
2023-03-22T07:17:08.698Z,93.89
2023-03-22T07:19:35.544Z,93.40
2023-03-22T07:22:06.737Z,93.23
2023-03-22T07:24:36.014Z,93.42
2023-03-22T07:27:03.703Z,93.05
2023-03-22T07:29:31.694Z,92.56
2023-03-22T07:31:58.893Z,92.50
2023-03-22T07:34:31.535Z,92.12
2023-03-22T07:37:04.956Z,91.48
2023-03-22T07:39:31.925Z,91.16
2023-03-22T07:41:58.744Z,91.04
2023-03-22T07:44:25.827Z,90.71
2023-03-22T07:47:15.502Z,90.79
2023-03-22T07:49:55.846Z,90.30
2023-03-22T07:52:27.509Z,89.83
2023-03-22T07:54:54.088Z,89.77
2023-03-22T07:57:20.734Z,89.50
2023-03-22T07:59:53.881Z,89.23
2023-03-22T08:02:20.830Z,88.81
2023-03-22T08:04:55.749Z,88.68
2023-03-22T08:07:31.574Z,88.83
2023-03-22T08:09:59.323Z,87.96
2023-03-22T08:12:27.988Z,86.56
2023-03-22T08:15:03.765Z,87.47
2023-03-22T08:17:31.786Z,86.84
2023-03-22T08:19:58.620Z,86.19
2023-03-22T08:22:40.173Z,86.79
2023-03-22T08:25:18.814Z,86.33
2023-03-22T08:27:45.854Z,85.36
2023-03-22T08:30:13.579Z,85.71
2023-03-22T08:32:41.013Z,86.29
2023-03-22T08:35:08.722Z,85.64
2023-03-22T08:37:35.381Z,85.50
2023-03-22T08:40:07.814Z,85.74
2023-03-22T08:42:51.800Z,85.68
2023-03-22T08:45:18.749Z,85.25
2023-03-22T08:47:54.831Z,84.09
2023-03-22T08:50:23.648Z,84.10
2023-03-22T08:53:04.218Z,83.23
2023-03-22T08:55:35.278Z,82.50
2023-03-22T08:58:12.596Z,82.22
2023-03-22T09:00:48.671Z,82.08
2023-03-22T09:03:24.900Z,83.05
2023-03-22T09:05:51.566Z,82.86
2023-03-22T09:08:19.493Z,82.56
2023-03-22T09:10:52.493Z,82.09
2023-03-22T09:13:21.737Z,82.28
2023-03-22T09:15:54.226Z,81.62
2023-03-22T09:18:25.327Z,82.04
2023-03-22T09:20:53.861Z,81.98
2023-03-22T09:23:24.976Z,81.77
2023-03-22T09:25:52.296Z,82.40
2023-03-22T09:28:23.906Z,82.57
2023-03-22T09:30:51.367Z,82.53
2023-03-22T09:33:17.928Z,82.76
2023-03-22T09:35:49.225Z,83.46
2023-03-22T09:38:16.315Z,84.57
2023-03-22T09:41:00.754Z,84.30
2023-03-22T09:43:35.691Z,84.74
2023-03-22T09:46:06.594Z,85.62
2023-03-22T09:48:37.080Z,86.23
2023-03-22T09:51:05.576Z,86.72
2023-03-22T09:53:32.885Z,87.53
2023-03-22T09:56:20.881Z,88.52
2023-03-22T09:58:51.064Z,88.82
2023-03-22T10:01:35.217Z,89.13
2023-03-22T10:04:06.940Z,89.78
2023-03-22T10:06:33.525Z,90.17
2023-03-22T10:09:13.804Z,91.05
2023-03-22T10:11:55.734Z,91.18
2023-03-22T10:14:35.813Z,90.57
2023-03-22T10:17:06.625Z,91.17
2023-03-22T10:19:58.192Z,92.06
2023-03-22T10:22:33.829Z,92.21
2023-03-22T10:25:01.498Z,92.64
2023-03-22T10:27:30.551Z,92.83
2023-03-22T10:30:08.396Z,93.18
2023-03-22T10:32:56.857Z,92.75
2023-03-22T10:35:24.382Z,94.30
2023-03-22T10:37:52.559Z,93.22
2023-03-22T10:40:23.823Z,94.06
2023-03-22T10:42:57.001Z,94.08
2023-03-22T10:45:26.213Z,94.32
2023-03-22T10:48:03.856Z,94.33
2023-03-22T10:50:34.921Z,95.13
2023-03-22T10:53:05.924Z,95.06
2023-03-22T10:55:32.811Z,94.31
2023-03-22T10:58:14.716Z,94.58
2023-03-22T11:01:07.447Z,94.37
2023-03-22T11:03:43.018Z,94.80
2023-03-22T11:06:13.321Z,95.00
2023-03-22T11:08:41.763Z,95.88
2023-03-22T11:11:16.465Z,95.77
2023-03-22T11:13:43.161Z,96.09
2023-03-22T11:16:09.817Z,95.92
2023-03-22T11:18:36.505Z,95.47
2023-03-22T11:21:09.667Z,94.66
2023-03-22T11:23:38.747Z,95.03
2023-03-22T11:26:11.332Z,94.37
2023-03-22T11:28:47.489Z,94.12
2023-03-22T11:31:17.115Z,94.04
2023-03-22T11:33:55.900Z,93.92
2023-03-22T11:36:23.214Z,93.71
2023-03-22T11:38:57.123Z,93.64
2023-03-22T11:41:27.139Z,93.68
2023-03-22T11:44:01.119Z,92.76
2023-03-22T11:46:29.402Z,93.63
2023-03-22T11:49:02.978Z,92.28
2023-03-22T11:51:33.349Z,92.26
2023-03-22T11:54:20.646Z,92.14
2023-03-22T11:56:49.394Z,92.81
2023-03-22T11:59:23.934Z,92.59
2023-03-22T12:02:20.406Z,92.76
2023-03-22T12:04:50.020Z,92.80
2023-03-22T12:07:21.504Z,92.88
2023-03-22T12:10:11.985Z,92.63
2023-03-22T12:13:00.641Z,92.13
2023-03-22T12:15:34.532Z,92.51
2023-03-22T12:18:08.377Z,92.22
2023-03-22T12:20:41.979Z,91.95
2023-03-22T12:23:35.245Z,91.98
2023-03-22T12:26:21.533Z,91.38
2023-03-22T12:28:56.368Z,92.00
2023-03-22T12:31:31.915Z,91.93
2023-03-22T12:34:04.944Z,91.77
2023-03-22T12:36:42.955Z,91.42
2023-03-22T12:39:19.330Z,91.82
2023-03-22T12:41:49.520Z,91.17
2023-03-22T12:44:25.130Z,90.69
2023-03-22T12:46:57.811Z,91.27
2023-03-22T12:49:32.617Z,91.48
2023-03-22T12:52:17.734Z,90.87
2023-03-22T12:54:47.466Z,90.29
2023-03-22T12:57:16.638Z,91.06
2023-03-22T12:59:48.895Z,90.70
2023-03-22T13:02:27.304Z,90.30
2023-03-22T13:04:59.213Z,90.22
2023-03-22T13:07:31.658Z,91.19
2023-03-22T13:10:00.029Z,90.59
2023-03-22T13:12:31.663Z,90.80
2023-03-22T13:15:00.266Z,91.05
2023-03-22T13:17:27.392Z,91.25
2023-03-22T13:20:11.379Z,90.87
2023-03-22T13:22:37.910Z,91.53
2023-03-22T13:25:08.691Z,90.81
2023-03-22T13:28:12.798Z,90.60
2023-03-22T13:30:52.682Z,91.21
2023-03-22T13:33:26.448Z,91.28
2023-03-22T13:35:57.668Z,91.20
2023-03-22T13:38:27.688Z,91.20
2023-03-22T13:41:22.196Z,90.97
2023-03-22T13:43:51.188Z,91.13
2023-03-22T13:46:17.895Z,91.50
2023-03-22T13:48:51.886Z,91.45
2023-03-22T13:51:30.979Z,91.76
2023-03-22T13:54:13.129Z,92.22
2023-03-22T13:56:42.996Z,92.75
2023-03-22T13:59:27.931Z,92.45
2023-03-22T14:02:00.169Z,92.84
2023-03-22T14:04:37.140Z,93.03
2023-03-22T14:07:45.278Z,93.16
2023-03-22T14:10:36.463Z,93.95
2023-03-22T14:13:02.931Z,93.94
2023-03-22T14:15:36.181Z,92.95
2023-03-22T14:18:17.805Z,93.37
2023-03-22T14:20:48.210Z,93.30
